sensor_id;sensor_type;location;lat;lon;timestamp;P1;durP1;ratioP1;P2;durP2;ratioP2
9270;SDS011;4673;53.458;9.940;2023-05-10T00:00:52;2.70;;;2.70;;
9270;SDS011;4673;53.458;9.940;2023-05-10T00:03:17;2.60;;;2.60;;
9270;SDS011;4673;53.458;9.940;2023-05-10T00:05:43;2.50;;;2.50;;
9270;SDS011;4673;53.458;9.940;2023-05-10T00:08:09;2.70;;;2.70;;
9270;SDS011;4673;53.458;9.940;2023-05-10T00:10:35;2.50;;;2.50;;
9270;SDS011;4673;53.458;9.940;2023-05-10T00:13:02;2.67;;;2.67;;
9270;SDS011;4673;53.458;9.940;2023-05-10T00:15:27;2.17;;;2.17;;
9270;SDS011;4673;53.458;9.940;2023-05-10T00:17:55;2.00;;;2.00;;
9270;SDS011;4673;53.458;9.940;2023-05-10T00:20:21;2.63;;;2.63;;
9270;SDS011;4673;53.458;9.940;2023-05-10T00:22:47;2.80;;;2.80;;
9270;SDS011;4673;53.458;9.940;2023-05-10T00:25:13;2.60;;;2.60;;
9270;SDS011;4673;53.458;9.940;2023-05-10T00:27:39;2.77;;;2.77;;
9270;SDS011;4673;53.458;9.940;2023-05-10T00:30:04;2.90;;;2.90;;
9270;SDS011;4673;53.458;9.940;2023-05-10T00:32:31;2.60;;;2.60;;
9270;SDS011;4673;53.458;9.940;2023-05-10T00:34:57;2.87;;;2.87;;
9270;SDS011;4673;53.458;9.940;2023-05-10T00:37:22;3.10;;;3.10;;
9270;SDS011;4673;53.458;9.940;2023-05-10T00:39:48;2.57;;;2.57;;
9270;SDS011;4673;53.458;9.940;2023-05-10T00:42:13;2.47;;;2.47;;
9270;SDS011;4673;53.458;9.940;2023-05-10T00:44:39;2.97;;;2.97;;
9270;SDS011;4673;53.458;9.940;2023-05-10T00:47:05;3.03;;;3.03;;
9270;SDS011;4673;53.458;9.940;2023-05-10T00:49:30;2.43;;;2.43;;
9270;SDS011;4673;53.458;9.940;2023-05-10T00:51:56;2.57;;;2.57;;
9270;SDS011;4673;53.458;9.940;2023-05-10T00:54:22;2.80;;;2.80;;
9270;SDS011;4673;53.458;9.940;2023-05-10T00:56:48;2.90;;;2.90;;
9270;SDS011;4673;53.458;9.940;2023-05-10T00:59:17;3.17;;;3.17;;
9270;SDS011;4673;53.458;9.940;2023-05-10T01:01:45;2.60;;;2.60;;
9270;SDS011;4673;53.458;9.940;2023-05-10T01:04:12;2.70;;;2.70;;
9270;SDS011;4673;53.458;9.940;2023-05-10T01:06:39;3.17;;;3.17;;
9270;SDS011;4673;53.458;9.940;2023-05-10T01:09:05;2.53;;;2.53;;
9270;SDS011;4673;53.458;9.940;2023-05-10T01:11:32;2.90;;;2.90;;
9270;SDS011;4673;53.458;9.940;2023-05-10T01:14:02;2.60;;;2.60;;
9270;SDS011;4673;53.458;9.940;2023-05-10T01:16:33;2.87;;;2.87;;
9270;SDS011;4673;53.458;9.940;2023-05-10T01:19:06;2.67;;;2.67;;
9270;SDS011;4673;53.458;9.940;2023-05-10T01:21:48;2.90;;;2.90;;
9270;SDS011;4673;53.458;9.940;2023-05-10T01:27:29;3.20;;;3.20;;
9270;SDS011;4673;53.458;9.940;2023-05-10T01:32:59;2.77;;;2.77;;
9270;SDS011;4673;53.458;9.940;2023-05-10T01:46:37;3.10;;;3.10;;
9270;SDS011;4673;53.458;9.940;2023-05-10T01:49:08;2.90;;;2.90;;
9270;SDS011;4673;53.458;9.940;2023-05-10T01:51:47;3.67;;;3.67;;
9270;SDS011;4673;53.458;9.940;2023-05-10T01:54:17;3.33;;;3.33;;
9270;SDS011;4673;53.458;9.940;2023-05-10T01:56:45;3.70;;;3.70;;
9270;SDS011;4673;53.458;9.940;2023-05-10T01:59:16;3.50;;;3.50;;
9270;SDS011;4673;53.458;9.940;2023-05-10T02:01:44;3.33;;;3.33;;
9270;SDS011;4673;53.458;9.940;2023-05-10T02:04:11;3.60;;;3.60;;
9270;SDS011;4673;53.458;9.940;2023-05-10T02:06:40;3.87;;;3.87;;
9270;SDS011;4673;53.458;9.940;2023-05-10T02:09:07;2.90;;;2.90;;
9270;SDS011;4673;53.458;9.940;2023-05-10T02:11:36;3.20;;;3.20;;
9270;SDS011;4673;53.458;9.940;2023-05-10T02:14:03;3.73;;;3.73;;
9270;SDS011;4673;53.458;9.940;2023-05-10T02:16:32;3.70;;;3.70;;
9270;SDS011;4673;53.458;9.940;2023-05-10T02:19:00;3.83;;;3.83;;
9270;SDS011;4673;53.458;9.940;2023-05-10T02:21:27;3.53;;;3.53;;
9270;SDS011;4673;53.458;9.940;2023-05-10T02:23:55;3.53;;;3.53;;
9270;SDS011;4673;53.458;9.940;2023-05-10T02:26:22;3.40;;;3.40;;
9270;SDS011;4673;53.458;9.940;2023-05-10T02:28:50;3.50;;;3.50;;
9270;SDS011;4673;53.458;9.940;2023-05-10T02:31:16;3.63;;;3.63;;
9270;SDS011;4673;53.458;9.940;2023-05-10T02:33:43;3.37;;;3.37;;
9270;SDS011;4673;53.458;9.940;2023-05-10T02:36:10;3.80;;;3.80;;
9270;SDS011;4673;53.458;9.940;2023-05-10T02:38:38;3.47;;;3.47;;
9270;SDS011;4673;53.458;9.940;2023-05-10T02:41:08;3.47;;;3.47;;
9270;SDS011;4673;53.458;9.940;2023-05-10T02:43:36;3.67;;;3.67;;
9270;SDS011;4673;53.458;9.940;2023-05-10T02:46:04;3.17;;;3.17;;
9270;SDS011;4673;53.458;9.940;2023-05-10T02:48:30;3.80;;;3.80;;
9270;SDS011;4673;53.458;9.940;2023-05-10T02:50:56;3.60;;;3.60;;
9270;SDS011;4673;53.458;9.940;2023-05-10T02:53:31;3.23;;;3.23;;
9270;SDS011;4673;53.458;9.940;2023-05-10T02:56:01;3.73;;;3.73;;
9270;SDS011;4673;53.458;9.940;2023-05-10T02:58:32;3.70;;;3.70;;
9270;SDS011;4673;53.458;9.940;2023-05-10T03:00:58;3.07;;;3.07;;
9270;SDS011;4673;53.458;9.940;2023-05-10T03:03:25;3.50;;;3.50;;
9270;SDS011;4673;53.458;9.940;2023-05-10T03:05:51;3.20;;;3.20;;
9270;SDS011;4673;53.458;9.940;2023-05-10T03:08:18;3.27;;;3.27;;
9270;SDS011;4673;53.458;9.940;2023-05-10T03:10:47;3.47;;;3.47;;
9270;SDS011;4673;53.458;9.940;2023-05-10T03:16:10;3.37;;;3.37;;
9270;SDS011;4673;53.458;9.940;2023-05-10T03:21:12;3.27;;;3.27;;
9270;SDS011;4673;53.458;9.940;2023-05-10T03:26:20;3.60;;;3.60;;
9270;SDS011;4673;53.458;9.940;2023-05-10T03:28:49;3.20;;;3.20;;
9270;SDS011;4673;53.458;9.940;2023-05-10T03:31:15;3.20;;;3.20;;
9270;SDS011;4673;53.458;9.940;2023-05-10T03:33:45;3.70;;;3.70;;
9270;SDS011;4673;53.458;9.940;2023-05-10T03:36:15;3.83;;;3.83;;
9270;SDS011;4673;53.458;9.940;2023-05-10T03:38:41;3.67;;;3.67;;
9270;SDS011;4673;53.458;9.940;2023-05-10T03:41:06;3.37;;;3.37;;
9270;SDS011;4673;53.458;9.940;2023-05-10T03:43:32;3.50;;;3.50;;
9270;SDS011;4673;53.458;9.940;2023-05-10T03:45:58;3.43;;;3.43;;
9270;SDS011;4673;53.458;9.940;2023-05-10T03:48:23;3.70;;;3.70;;
9270;SDS011;4673;53.458;9.940;2023-05-10T03:50:49;3.40;;;3.40;;
9270;SDS011;4673;53.458;9.940;2023-05-10T03:53:15;4.07;;;4.07;;
9270;SDS011;4673;53.458;9.940;2023-05-10T03:55:41;3.70;;;3.70;;
9270;SDS011;4673;53.458;9.940;2023-05-10T03:58:06;4.00;;;4.00;;
9270;SDS011;4673;53.458;9.940;2023-05-10T04:00:35;3.93;;;3.93;;
9270;SDS011;4673;53.458;9.940;2023-05-10T04:03:00;3.60;;;3.60;;
9270;SDS011;4673;53.458;9.940;2023-05-10T04:05:26;3.87;;;3.87;;
9270;SDS011;4673;53.458;9.940;2023-05-10T04:07:52;3.70;;;3.70;;
9270;SDS011;4673;53.458;9.940;2023-05-10T04:10:17;3.53;;;3.53;;
9270;SDS011;4673;53.458;9.940;2023-05-10T04:12:43;3.63;;;3.63;;
9270;SDS011;4673;53.458;9.940;2023-05-10T04:15:09;4.10;;;4.10;;
9270;SDS011;4673;53.458;9.940;2023-05-10T04:17:37;3.97;;;3.97;;
9270;SDS011;4673;53.458;9.940;2023-05-10T04:20:03;3.73;;;3.73;;
9270;SDS011;4673;53.458;9.940;2023-05-10T04:22:29;3.10;;;3.10;;
9270;SDS011;4673;53.458;9.940;2023-05-10T04:24:55;4.23;;;4.23;;
9270;SDS011;4673;53.458;9.940;2023-05-10T04:27:20;3.50;;;3.50;;
9270;SDS011;4673;53.458;9.940;2023-05-10T04:29:46;3.53;;;3.53;;
9270;SDS011;4673;53.458;9.940;2023-05-10T04:32:12;3.40;;;3.40;;
9270;SDS011;4673;53.458;9.940;2023-05-10T04:34:37;3.63;;;3.63;;
9270;SDS011;4673;53.458;9.940;2023-05-10T04:37:03;4.00;;;4.00;;
9270;SDS011;4673;53.458;9.940;2023-05-10T04:39:29;3.57;;;3.57;;
9270;SDS011;4673;53.458;9.940;2023-05-10T04:41:54;3.80;;;3.80;;
9270;SDS011;4673;53.458;9.940;2023-05-10T04:44:20;3.57;;;3.57;;
9270;SDS011;4673;53.458;9.940;2023-05-10T04:46:45;3.50;;;3.50;;
9270;SDS011;4673;53.458;9.940;2023-05-10T04:49:11;4.37;;;4.37;;
9270;SDS011;4673;53.458;9.940;2023-05-10T04:51:37;3.37;;;3.37;;
9270;SDS011;4673;53.458;9.940;2023-05-10T04:54:02;3.57;;;3.57;;
9270;SDS011;4673;53.458;9.940;2023-05-10T04:56:28;3.40;;;3.40;;
9270;SDS011;4673;53.458;9.940;2023-05-10T04:58:54;3.97;;;3.97;;
9270;SDS011;4673;53.458;9.940;2023-05-10T05:01:19;3.70;;;3.70;;
9270;SDS011;4673;53.458;9.940;2023-05-10T05:03:45;3.97;;;3.97;;
9270;SDS011;4673;53.458;9.940;2023-05-10T05:06:11;3.87;;;3.87;;
9270;SDS011;4673;53.458;9.940;2023-05-10T05:08:36;3.57;;;3.57;;
9270;SDS011;4673;53.458;9.940;2023-05-10T05:11:02;3.30;;;3.30;;
9270;SDS011;4673;53.458;9.940;2023-05-10T05:13:27;3.07;;;3.07;;
9270;SDS011;4673;53.458;9.940;2023-05-10T05:15:53;3.83;;;3.83;;
9270;SDS011;4673;53.458;9.940;2023-05-10T05:18:19;3.50;;;3.50;;
9270;SDS011;4673;53.458;9.940;2023-05-10T05:20:45;3.60;;;3.60;;
9270;SDS011;4673;53.458;9.940;2023-05-10T05:23:11;3.77;;;3.77;;
9270;SDS011;4673;53.458;9.940;2023-05-10T05:25:36;3.77;;;3.77;;
9270;SDS011;4673;53.458;9.940;2023-05-10T05:28:02;3.37;;;3.37;;
9270;SDS011;4673;53.458;9.940;2023-05-10T05:30:28;3.75;;;3.75;;
9270;SDS011;4673;53.458;9.940;2023-05-10T05:32:53;3.75;;;3.75;;
9270;SDS011;4673;53.458;9.940;2023-05-10T05:35:19;3.40;;;3.40;;
9270;SDS011;4673;53.458;9.940;2023-05-10T05:37:45;3.63;;;3.63;;
9270;SDS011;4673;53.458;9.940;2023-05-10T05:40:14;3.42;;;3.42;;
9270;SDS011;4673;53.458;9.940;2023-05-10T05:42:40;3.00;;;3.00;;
9270;SDS011;4673;53.458;9.940;2023-05-10T05:45:06;3.70;;;3.70;;
9270;SDS011;4673;53.458;9.940;2023-05-10T05:47:33;3.28;;;3.28;;
9270;SDS011;4673;53.458;9.940;2023-05-10T05:49:59;3.42;;;3.42;;
9270;SDS011;4673;53.458;9.940;2023-05-10T05:52:25;3.10;;;3.10;;
9270;SDS011;4673;53.458;9.940;2023-05-10T05:54:50;3.50;;;3.50;;
9270;SDS011;4673;53.458;9.940;2023-05-10T05:57:16;2.95;;;2.95;;
9270;SDS011;4673;53.458;9.940;2023-05-10T05:59:41;3.05;;;3.05;;
9270;SDS011;4673;53.458;9.940;2023-05-10T06:02:09;2.95;;;2.95;;
9270;SDS011;4673;53.458;9.940;2023-05-10T06:04:35;3.33;;;3.33;;
9270;SDS011;4673;53.458;9.940;2023-05-10T06:07:01;3.28;;;3.28;;
9270;SDS011;4673;53.458;9.940;2023-05-10T06:09:26;2.70;;;2.70;;
9270;SDS011;4673;53.458;9.940;2023-05-10T06:11:52;3.35;;;3.35;;
9270;SDS011;4673;53.458;9.940;2023-05-10T06:14:19;2.75;;;2.75;;
9270;SDS011;4673;53.458;9.940;2023-05-10T06:16:45;3.88;;;3.88;;
9270;SDS011;4673;53.458;9.940;2023-05-10T06:19:11;3.13;;;3.13;;
9270;SDS011;4673;53.458;9.940;2023-05-10T06:21:37;3.85;;;3.85;;
9270;SDS011;4673;53.458;9.940;2023-05-10T06:24:03;3.58;;;3.58;;
9270;SDS011;4673;53.458;9.940;2023-05-10T06:26:28;3.00;;;3.00;;
9270;SDS011;4673;53.458;9.940;2023-05-10T06:28:54;3.65;;;3.65;;
9270;SDS011;4673;53.458;9.940;2023-05-10T06:31:20;4.25;;;4.25;;
9270;SDS011;4673;53.458;9.940;2023-05-10T06:33:45;3.13;;;3.13;;
9270;SDS011;4673;53.458;9.940;2023-05-10T06:36:11;2.88;;;2.88;;
9270;SDS011;4673;53.458;9.940;2023-05-10T06:38:38;3.17;;;3.17;;
9270;SDS011;4673;53.458;9.940;2023-05-10T06:41:04;3.42;;;3.42;;
9270;SDS011;4673;53.458;9.940;2023-05-10T06:43:30;3.13;;;3.13;;
9270;SDS011;4673;53.458;9.940;2023-05-10T06:45:56;3.50;;;3.50;;
9270;SDS011;4673;53.458;9.940;2023-05-10T06:48:22;3.05;;;3.05;;
9270;SDS011;4673;53.458;9.940;2023-05-10T06:50:48;3.00;;;3.00;;
9270;SDS011;4673;53.458;9.940;2023-05-10T06:53:13;3.17;;;3.17;;
9270;SDS011;4673;53.458;9.940;2023-05-10T06:55:39;2.85;;;2.85;;
9270;SDS011;4673;53.458;9.940;2023-05-10T06:58:05;3.00;;;3.00;;
9270;SDS011;4673;53.458;9.940;2023-05-10T07:00:31;3.35;;;3.35;;
9270;SDS011;4673;53.458;9.940;2023-05-10T07:02:56;3.33;;;3.33;;
9270;SDS011;4673;53.458;9.940;2023-05-10T07:05:22;3.13;;;3.13;;
9270;SDS011;4673;53.458;9.940;2023-05-10T07:07:48;3.25;;;3.25;;
9270;SDS011;4673;53.458;9.940;2023-05-10T07:10:13;2.92;;;2.92;;
9270;SDS011;4673;53.458;9.940;2023-05-10T07:12:39;3.45;;;3.45;;
9270;SDS011;4673;53.458;9.940;2023-05-10T07:15:05;2.72;;;2.72;;
9270;SDS011;4673;53.458;9.940;2023-05-10T07:17:31;3.28;;;3.28;;
9270;SDS011;4673;53.458;9.940;2023-05-10T07:19:58;3.65;;;3.65;;
9270;SDS011;4673;53.458;9.940;2023-05-10T07:22:25;3.55;;;3.55;;
9270;SDS011;4673;53.458;9.940;2023-05-10T07:24:50;3.55;;;3.55;;
9270;SDS011;4673;53.458;9.940;2023-05-10T07:27:16;3.65;;;3.65;;
9270;SDS011;4673;53.458;9.940;2023-05-10T07:29:42;3.85;;;3.85;;
9270;SDS011;4673;53.458;9.940;2023-05-10T07:32:08;3.80;;;3.80;;
9270;SDS011;4673;53.458;9.940;2023-05-10T07:34:33;3.05;;;3.05;;
9270;SDS011;4673;53.458;9.940;2023-05-10T07:36:59;3.72;;;3.72;;
9270;SDS011;4673;53.458;9.940;2023-05-10T07:39:25;3.50;;;3.50;;
9270;SDS011;4673;53.458;9.940;2023-05-10T07:41:51;3.17;;;3.17;;
9270;SDS011;4673;53.458;9.940;2023-05-10T07:44:17;3.42;;;3.42;;
9270;SDS011;4673;53.458;9.940;2023-05-10T07:46:46;3.08;;;3.08;;
9270;SDS011;4673;53.458;9.940;2023-05-10T07:49:12;3.40;;;3.40;;
9270;SDS011;4673;53.458;9.940;2023-05-10T07:51:38;2.90;;;2.90;;
9270;SDS011;4673;53.458;9.940;2023-05-10T07:54:03;3.55;;;3.55;;
9270;SDS011;4673;53.458;9.940;2023-05-10T07:56:30;3.13;;;3.13;;
9270;SDS011;4673;53.458;9.940;2023-05-10T07:58:57;3.33;;;3.33;;
9270;SDS011;4673;53.458;9.940;2023-05-10T08:01:24;2.97;;;2.97;;
9270;SDS011;4673;53.458;9.940;2023-05-10T08:03:50;4.97;;;4.88;;
9270;SDS011;4673;53.458;9.940;2023-05-10T08:06:19;3.17;;;3.17;;
9270;SDS011;4673;53.458;9.940;2023-05-10T08:08:46;3.50;;;3.50;;
9270;SDS011;4673;53.458;9.940;2023-05-10T08:11:15;4.40;;;4.40;;
9270;SDS011;4673;53.458;9.940;2023-05-10T08:13:42;3.83;;;3.83;;
9270;SDS011;4673;53.458;9.940;2023-05-10T08:16:08;3.65;;;3.65;;
9270;SDS011;4673;53.458;9.940;2023-05-10T08:18:34;3.10;;;3.10;;
9270;SDS011;4673;53.458;9.940;2023-05-10T08:21:00;3.30;;;3.30;;
9270;SDS011;4673;53.458;9.940;2023-05-10T08:23:25;3.58;;;3.58;;
9270;SDS011;4673;53.458;9.940;2023-05-10T08:25:51;3.72;;;3.72;;
9270;SDS011;4673;53.458;9.940;2023-05-10T08:28:16;3.65;;;3.65;;
9270;SDS011;4673;53.458;9.940;2023-05-10T08:30:42;3.03;;;3.03;;
9270;SDS011;4673;53.458;9.940;2023-05-10T08:33:08;3.28;;;3.28;;
9270;SDS011;4673;53.458;9.940;2023-05-10T08:35:33;4.55;;;4.55;;
9270;SDS011;4673;53.458;9.940;2023-05-10T08:38:00;5.80;;;5.80;;
9270;SDS011;4673;53.458;9.940;2023-05-10T08:40:26;4.25;;;4.25;;
9270;SDS011;4673;53.458;9.940;2023-05-10T08:43:10;3.83;;;3.83;;
9270;SDS011;4673;53.458;9.940;2023-05-10T08:45:46;3.50;;;3.50;;
9270;SDS011;4673;53.458;9.940;2023-05-10T08:48:14;3.75;;;3.75;;
9270;SDS011;4673;53.458;9.940;2023-05-10T08:50:41;3.20;;;3.20;;
9270;SDS011;4673;53.458;9.940;2023-05-10T08:53:11;3.72;;;3.72;;
9270;SDS011;4673;53.458;9.940;2023-05-10T08:55:38;3.50;;;3.50;;
9270;SDS011;4673;53.458;9.940;2023-05-10T08:58:07;4.15;;;4.15;;
9270;SDS011;4673;53.458;9.940;2023-05-10T09:00:33;3.40;;;3.40;;
9270;SDS011;4673;53.458;9.940;2023-05-10T09:02:59;3.67;;;3.67;;
9270;SDS011;4673;53.458;9.940;2023-05-10T09:05:25;4.07;;;4.07;;
9270;SDS011;4673;53.458;9.940;2023-05-10T09:07:51;3.88;;;3.88;;
9270;SDS011;4673;53.458;9.940;2023-05-10T09:10:16;4.15;;;4.15;;
9270;SDS011;4673;53.458;9.940;2023-05-10T09:12:43;4.55;;;4.55;;
9270;SDS011;4673;53.458;9.940;2023-05-10T09:15:10;3.85;;;3.85;;
9270;SDS011;4673;53.458;9.940;2023-05-10T09:17:37;3.47;;;3.47;;
9270;SDS011;4673;53.458;9.940;2023-05-10T09:20:05;3.97;;;3.97;;
9270;SDS011;4673;53.458;9.940;2023-05-10T09:22:32;3.35;;;3.35;;
9270;SDS011;4673;53.458;9.940;2023-05-10T09:25:07;3.80;;;3.80;;
9270;SDS011;4673;53.458;9.940;2023-05-10T09:27:40;3.85;;;3.85;;
9270;SDS011;4673;53.458;9.940;2023-05-10T09:30:10;4.00;;;4.00;;
9270;SDS011;4673;53.458;9.940;2023-05-10T09:32:41;3.95;;;3.95;;
9270;SDS011;4673;53.458;9.940;2023-05-10T09:35:12;4.38;;;4.38;;
9270;SDS011;4673;53.458;9.940;2023-05-10T09:37:40;4.10;;;4.10;;
9270;SDS011;4673;53.458;9.940;2023-05-10T09:40:08;3.67;;;3.67;;
9270;SDS011;4673;53.458;9.940;2023-05-10T09:42:37;3.85;;;3.85;;
9270;SDS011;4673;53.458;9.940;2023-05-10T09:45:04;4.07;;;4.07;;
9270;SDS011;4673;53.458;9.940;2023-05-10T09:47:33;3.85;;;3.85;;
9270;SDS011;4673;53.458;9.940;2023-05-10T09:50:00;4.95;;;4.95;;
9270;SDS011;4673;53.458;9.940;2023-05-10T09:52:28;4.32;;;4.32;;
9270;SDS011;4673;53.458;9.940;2023-05-10T09:55:11;4.47;;;4.47;;
9270;SDS011;4673;53.458;9.940;2023-05-10T09:57:37;4.55;;;4.55;;
9270;SDS011;4673;53.458;9.940;2023-05-10T10:00:03;4.35;;;4.35;;
9270;SDS011;4673;53.458;9.940;2023-05-10T10:02:30;4.90;;;4.90;;
9270;SDS011;4673;53.458;9.940;2023-05-10T10:04:56;4.43;;;4.43;;
9270;SDS011;4673;53.458;9.940;2023-05-10T10:07:22;4.72;;;4.72;;
9270;SDS011;4673;53.458;9.940;2023-05-10T10:09:50;4.75;;;4.75;;
9270;SDS011;4673;53.458;9.940;2023-05-10T10:12:16;5.20;;;5.20;;
9270;SDS011;4673;53.458;9.940;2023-05-10T10:14:42;5.30;;;5.30;;
9270;SDS011;4673;53.458;9.940;2023-05-10T10:17:08;5.38;;;5.38;;
9270;SDS011;4673;53.458;9.940;2023-05-10T10:19:34;5.35;;;5.35;;
9270;SDS011;4673;53.458;9.940;2023-05-10T10:22:00;4.80;;;4.80;;
9270;SDS011;4673;53.458;9.940;2023-05-10T10:24:26;4.97;;;4.97;;
9270;SDS011;4673;53.458;9.940;2023-05-10T10:26:52;4.50;;;4.50;;
9270;SDS011;4673;53.458;9.940;2023-05-10T10:33:30;4.72;;;4.72;;
9270;SDS011;4673;53.458;9.940;2023-05-10T10:35:39;5.82;;;5.82;;
9270;SDS011;4673;53.458;9.940;2023-05-10T10:38:07;5.13;;;5.13;;
9270;SDS011;4673;53.458;9.940;2023-05-10T10:40:34;4.97;;;4.97;;
9270;SDS011;4673;53.458;9.940;2023-05-10T10:48:36;5.30;;;5.30;;
9270;SDS011;4673;53.458;9.940;2023-05-10T10:51:02;6.28;;;6.28;;
9270;SDS011;4673;53.458;9.940;2023-05-10T10:53:28;6.05;;;6.05;;
9270;SDS011;4673;53.458;9.940;2023-05-10T10:56:13;5.80;;;5.80;;
9270;SDS011;4673;53.458;9.940;2023-05-10T10:58:40;5.25;;;5.25;;
9270;SDS011;4673;53.458;9.940;2023-05-10T11:01:39;5.22;;;5.22;;
9270;SDS011;4673;53.458;9.940;2023-05-10T11:06:32;7.00;;;7.00;;
9270;SDS011;4673;53.458;9.940;2023-05-10T11:08:59;5.72;;;5.72;;
9270;SDS011;4673;53.458;9.940;2023-05-10T11:11:30;6.25;;;6.25;;
9270;SDS011;4673;53.458;9.940;2023-05-10T11:13:56;6.03;;;6.03;;
9270;SDS011;4673;53.458;9.940;2023-05-10T11:16:41;6.40;;;6.40;;
9270;SDS011;4673;53.458;9.940;2023-05-10T11:19:08;5.60;;;5.60;;
9270;SDS011;4673;53.458;9.940;2023-05-10T11:21:45;6.32;;;6.32;;
9270;SDS011;4673;53.458;9.940;2023-05-10T11:24:16;6.22;;;6.22;;
9270;SDS011;4673;53.458;9.940;2023-05-10T11:26:43;6.07;;;6.07;;
9270;SDS011;4673;53.458;9.940;2023-05-10T11:29:09;6.43;;;6.43;;
9270;SDS011;4673;53.458;9.940;2023-05-10T11:31:41;6.38;;;6.38;;
9270;SDS011;4673;53.458;9.940;2023-05-10T11:34:08;5.65;;;5.65;;
9270;SDS011;4673;53.458;9.940;2023-05-10T11:36:35;5.85;;;5.85;;
9270;SDS011;4673;53.458;9.940;2023-05-10T11:39:02;6.32;;;6.32;;
9270;SDS011;4673;53.458;9.940;2023-05-10T11:41:28;5.22;;;5.22;;
9270;SDS011;4673;53.458;9.940;2023-05-10T11:43:55;5.60;;;5.60;;
9270;SDS011;4673;53.458;9.940;2023-05-10T11:46:22;4.82;;;4.82;;
9270;SDS011;4673;53.458;9.940;2023-05-10T11:48:50;5.43;;;5.43;;
9270;SDS011;4673;53.458;9.940;2023-05-10T11:51:21;5.07;;;5.07;;
9270;SDS011;4673;53.458;9.940;2023-05-10T11:53:49;5.40;;;5.40;;
9270;SDS011;4673;53.458;9.940;2023-05-10T11:56:15;5.80;;;5.80;;
9270;SDS011;4673;53.458;9.940;2023-05-10T11:58:41;5.60;;;5.60;;
9270;SDS011;4673;53.458;9.940;2023-05-10T12:01:07;5.03;;;5.03;;
9270;SDS011;4673;53.458;9.940;2023-05-10T12:03:34;5.47;;;5.47;;
9270;SDS011;4673;53.458;9.940;2023-05-10T12:06:02;5.40;;;5.40;;
9270;SDS011;4673;53.458;9.940;2023-05-10T12:08:28;4.82;;;4.82;;
9270;SDS011;4673;53.458;9.940;2023-05-10T12:11:16;5.10;;;5.10;;
9270;SDS011;4673;53.458;9.940;2023-05-10T12:13:42;5.00;;;5.00;;
9270;SDS011;4673;53.458;9.940;2023-05-10T12:16:16;5.07;;;5.07;;
9270;SDS011;4673;53.458;9.940;2023-05-10T12:18:42;5.25;;;5.25;;
9270;SDS011;4673;53.458;9.940;2023-05-10T12:21:09;5.03;;;5.03;;
9270;SDS011;4673;53.458;9.940;2023-05-10T12:23:36;4.45;;;4.45;;
9270;SDS011;4673;53.458;9.940;2023-05-10T12:26:03;4.85;;;4.85;;
9270;SDS011;4673;53.458;9.940;2023-05-10T12:28:30;4.90;;;4.90;;
9270;SDS011;4673;53.458;9.940;2023-05-10T12:30:57;5.25;;;5.25;;
9270;SDS011;4673;53.458;9.940;2023-05-10T12:33:23;5.32;;;5.32;;
9270;SDS011;4673;53.458;9.940;2023-05-10T12:35:50;4.32;;;4.32;;
9270;SDS011;4673;53.458;9.940;2023-05-10T12:38:27;4.97;;;4.97;;
9270;SDS011;4673;53.458;9.940;2023-05-10T12:40:55;4.65;;;4.65;;
9270;SDS011;4673;53.458;9.940;2023-05-10T12:43:24;4.55;;;4.55;;
9270;SDS011;4673;53.458;9.940;2023-05-10T12:45:50;4.78;;;4.78;;
9270;SDS011;4673;53.458;9.940;2023-05-10T12:48:15;5.18;;;5.18;;
9270;SDS011;4673;53.458;9.940;2023-05-10T12:50:41;5.22;;;5.22;;
9270;SDS011;4673;53.458;9.940;2023-05-10T12:53:07;4.70;;;4.70;;
9270;SDS011;4673;53.458;9.940;2023-05-10T12:55:32;7.15;;;7.15;;
9270;SDS011;4673;53.458;9.940;2023-05-10T12:57:58;4.88;;;4.88;;
9270;SDS011;4673;53.458;9.940;2023-05-10T13:00:24;4.60;;;4.60;;
9270;SDS011;4673;53.458;9.940;2023-05-10T13:02:49;4.30;;;4.30;;
9270;SDS011;4673;53.458;9.940;2023-05-10T13:05:15;4.72;;;4.72;;
9270;SDS011;4673;53.458;9.940;2023-05-10T13:07:41;4.28;;;4.28;;
9270;SDS011;4673;53.458;9.940;2023-05-10T13:10:08;3.88;;;3.88;;
9270;SDS011;4673;53.458;9.940;2023-05-10T13:12:35;3.85;;;3.85;;
9270;SDS011;4673;53.458;9.940;2023-05-10T13:15:01;4.78;;;4.78;;
9270;SDS011;4673;53.458;9.940;2023-05-10T13:17:28;4.97;;;4.97;;
9270;SDS011;4673;53.458;9.940;2023-05-10T13:19:54;4.85;;;4.85;;
9270;SDS011;4673;53.458;9.940;2023-05-10T13:22:20;4.07;;;4.07;;
9270;SDS011;4673;53.458;9.940;2023-05-10T13:24:45;4.55;;;4.55;;
9270;SDS011;4673;53.458;9.940;2023-05-10T13:27:11;4.70;;;4.70;;
9270;SDS011;4673;53.458;9.940;2023-05-10T13:29:37;5.00;;;5.00;;
9270;SDS011;4673;53.458;9.940;2023-05-10T13:32:02;5.00;;;5.00;;
9270;SDS011;4673;53.458;9.940;2023-05-10T13:34:28;4.93;;;4.93;;
9270;SDS011;4673;53.458;9.940;2023-05-10T13:36:54;4.88;;;4.88;;
9270;SDS011;4673;53.458;9.940;2023-05-10T13:39:21;5.10;;;5.10;;
9270;SDS011;4673;53.458;9.940;2023-05-10T13:41:47;4.75;;;4.75;;
9270;SDS011;4673;53.458;9.940;2023-05-10T13:44:13;4.72;;;4.72;;
9270;SDS011;4673;53.458;9.940;2023-05-10T13:46:39;5.32;;;5.32;;
9270;SDS011;4673;53.458;9.940;2023-05-10T13:49:05;4.70;;;4.70;;
9270;SDS011;4673;53.458;9.940;2023-05-10T13:51:31;3.72;;;3.72;;
9270;SDS011;4673;53.458;9.940;2023-05-10T13:53:58;4.35;;;4.35;;
9270;SDS011;4673;53.458;9.940;2023-05-10T13:56:23;4.60;;;4.60;;
9270;SDS011;4673;53.458;9.940;2023-05-10T13:58:49;5.03;;;5.03;;
9270;SDS011;4673;53.458;9.940;2023-05-10T14:01:15;4.72;;;4.72;;
9270;SDS011;4673;53.458;9.940;2023-05-10T14:03:40;4.80;;;4.80;;
9270;SDS011;4673;53.458;9.940;2023-05-10T14:06:07;4.75;;;4.75;;
9270;SDS011;4673;53.458;9.940;2023-05-10T14:08:33;4.78;;;4.78;;
9270;SDS011;4673;53.458;9.940;2023-05-10T14:11:00;5.00;;;5.00;;
9270;SDS011;4673;53.458;9.940;2023-05-10T14:13:26;5.32;;;5.32;;
9270;SDS011;4673;53.458;9.940;2023-05-10T14:15:52;4.57;;;4.57;;
9270;SDS011;4673;53.458;9.940;2023-05-10T14:18:19;5.25;;;5.25;;
9270;SDS011;4673;53.458;9.940;2023-05-10T14:20:44;4.38;;;4.38;;
9270;SDS011;4673;53.458;9.940;2023-05-10T14:23:10;4.60;;;4.60;;
9270;SDS011;4673;53.458;9.940;2023-05-10T14:25:36;4.18;;;4.18;;
9270;SDS011;4673;53.458;9.940;2023-05-10T14:28:03;4.57;;;4.57;;
9270;SDS011;4673;53.458;9.940;2023-05-10T14:30:28;4.70;;;4.70;;
9270;SDS011;4673;53.458;9.940;2023-05-10T14:32:54;3.85;;;3.85;;
9270;SDS011;4673;53.458;9.940;2023-05-10T14:35:20;4.03;;;4.03;;
9270;SDS011;4673;53.458;9.940;2023-05-10T14:37:46;3.92;;;3.92;;
9270;SDS011;4673;53.458;9.940;2023-05-10T14:40:12;3.60;;;3.60;;
9270;SDS011;4673;53.458;9.940;2023-05-10T14:42:39;3.90;;;3.90;;
9270;SDS011;4673;53.458;9.940;2023-05-10T14:45:04;3.95;;;3.95;;
9270;SDS011;4673;53.458;9.940;2023-05-10T14:47:30;5.18;;;5.18;;
9270;SDS011;4673;53.458;9.940;2023-05-10T14:49:56;4.00;;;4.00;;
9270;SDS011;4673;53.458;9.940;2023-05-10T14:52:21;4.50;;;4.50;;
9270;SDS011;4673;53.458;9.940;2023-05-10T14:54:47;4.03;;;4.03;;
9270;SDS011;4673;53.458;9.940;2023-05-10T14:57:13;4.35;;;4.35;;
9270;SDS011;4673;53.458;9.940;2023-05-10T14:59:38;3.40;;;3.40;;
9270;SDS011;4673;53.458;9.940;2023-05-10T15:02:04;3.72;;;3.72;;
9270;SDS011;4673;53.458;9.940;2023-05-10T15:04:30;4.50;;;4.50;;
9270;SDS011;4673;53.458;9.940;2023-05-10T15:06:56;3.65;;;3.65;;
9270;SDS011;4673;53.458;9.940;2023-05-10T15:09:24;3.20;;;3.20;;
9270;SDS011;4673;53.458;9.940;2023-05-10T15:11:49;3.72;;;3.72;;
9270;SDS011;4673;53.458;9.940;2023-05-10T15:14:15;3.63;;;3.63;;
9270;SDS011;4673;53.458;9.940;2023-05-10T15:16:41;3.08;;;3.08;;
9270;SDS011;4673;53.458;9.940;2023-05-10T15:19:06;3.42;;;3.42;;
9270;SDS011;4673;53.458;9.940;2023-05-10T15:21:32;3.35;;;3.35;;
9270;SDS011;4673;53.458;9.940;2023-05-10T15:24:03;3.40;;;3.40;;
9270;SDS011;4673;53.458;9.940;2023-05-10T15:26:30;3.63;;;3.63;;
9270;SDS011;4673;53.458;9.940;2023-05-10T15:28:56;3.65;;;3.65;;
9270;SDS011;4673;53.458;9.940;2023-05-10T15:31:21;3.55;;;3.55;;
9270;SDS011;4673;53.458;9.940;2023-05-10T15:33:47;4.00;;;4.00;;
9270;SDS011;4673;53.458;9.940;2023-05-10T15:36:12;3.38;;;3.38;;
9270;SDS011;4673;53.458;9.940;2023-05-10T15:38:38;4.40;;;4.40;;
9270;SDS011;4673;53.458;9.940;2023-05-10T15:41:04;4.45;;;4.45;;
9270;SDS011;4673;53.458;9.940;2023-05-10T15:43:29;3.63;;;3.63;;
9270;SDS011;4673;53.458;9.940;2023-05-10T15:45:55;4.07;;;4.07;;
9270;SDS011;4673;53.458;9.940;2023-05-10T15:48:21;4.47;;;4.47;;
9270;SDS011;4673;53.458;9.940;2023-05-10T15:50:46;3.50;;;3.50;;